Time;durP1;ratioP1;P1;durP2;ratioP2;P2;SDS_P1;SDS_P2;PMS_P1;PMS_P2;Temp;Humidity;BMP_temperature;BMP_pressure;BME280_temperature;BME280_humidity;BME280_pressure;Samples;Min_cycle;Max_cycle;Signal;HPM_P1;HPM_P2
2023/10/08 00:01:55;;;;;;;0.10;0.10;;;;;;;17.52;42.54;101546.66;4979604;28;20037;-83
2023/10/08 00:04:21;;;;;;;0.10;0.10;;;;;;;17.51;42.34;101549.38;4948075;28;20026;-85
2023/10/08 00:06:47;;;;;;;0.10;0.10;;;;;;;17.59;42.35;101549.69;4963719;28;20393;-83
2023/10/08 00:09:14;;;;;;;0.10;0.10;;;;;;;17.55;42.66;101546.44;4995920;28;20034;-83
2023/10/08 00:11:40;;;;;;;0.10;0.10;;;;;;;17.47;42.77;101533.00;4964135;28;20030;-84
2023/10/08 00:14:09;;;;;;;0.10;0.10;;;;;;;17.52;42.49;101536.19;4963562;28;20125;-84
2023/10/08 00:16:35;;;;;;;0.10;0.10;;;;;;;17.52;42.94;101530.97;4964968;28;20035;-83
2023/10/08 00:19:08;;;;;;;0.10;0.10;;;;;;;17.41;42.88;101523.78;4992352;28;20058;-83
2023/10/08 00:21:35;;;;;;;0.10;0.10;;;;;;;17.32;43.12;101513.91;4946320;28;20026;-83
2023/10/08 00:24:05;;;;;;;0.10;0.10;;;;;;;17.35;43.52;101524.16;4960777;28;20034;-83
2023/10/08 00:26:30;;;;;;;0.10;0.10;;;;;;;17.31;43.40;101521.84;4961568;28;20033;-83
2023/10/08 00:29:06;;;;;;;0.10;0.10;;;;;;;17.12;43.49;101506.47;4960345;28;20026;-83
2023/10/08 00:31:37;;;;;;;0.10;0.10;;;;;;;17.05;43.63;101500.78;4961848;28;20030;-83
2023/10/08 00:34:05;;;;;;;0.10;0.10;;;;;;;16.99;44.08;101487.25;4960575;28;20405;-83
2023/10/08 00:36:31;;;;;;;0.10;0.10;;;;;;;17.11;43.85;101505.63;4960720;28;20022;-84
2023/10/08 00:39:00;;;;;;;0.10;0.10;;;;;;;17.09;43.77;101509.25;4944159;28;20416;-84
2023/10/08 00:41:30;;;;;;;0.10;0.10;;;;;;;17.06;43.95;101509.47;4960932;28;20089;-84
2023/10/08 00:43:56;;;;;;;0.10;0.10;;;;;;;17.11;44.12;101507.41;4993208;28;20030;-83
2023/10/08 00:46:35;;;;;;;0.10;0.10;;;;;;;17.07;44.23;101503.28;4959918;28;20551;-83
2023/10/08 00:51:46;;;;;;;0.10;0.10;;;;;;;17.13;43.47;101495.09;4964793;28;20058;-84
2023/10/08 00:54:17;;;;;;;0.10;0.10;;;;;;;17.17;43.72;101507.00;4976187;28;20117;-84
2023/10/08 00:59:20;;;;;;;0.10;0.10;;;;;;;17.17;43.51;101500.00;4960623;28;20030;-85
2023/10/08 01:01:50;;;;;;;0.10;0.10;;;;;;;17.18;43.58;101506.06;4976952;28;20452;-84
2023/10/08 01:04:23;;;;;;;0.10;0.10;;;;;;;17.17;43.29;101493.94;4961265;28;20452;-85
2023/10/08 01:07:01;;;;;;;0.10;0.10;;;;;;;17.23;42.85;101497.97;4960825;28;20034;-84
2023/10/08 01:09:32;;;;;;;0.10;0.10;;;;;;;17.28;43.17;101496.72;4961098;28;20038;-84
2023/10/08 01:12:21;;;;;;;0.10;0.10;;;;;;;17.33;43.01;101499.91;4976215;28;20038;-84
2023/10/08 01:14:47;;;;;;;0.10;0.10;;;;;;;17.27;43.18;101486.34;4960042;28;20049;-83
2023/10/08 01:17:16;;;;;;;0.10;0.10;;;;;;;17.27;43.20;101500.28;4975496;28;20026;-83
2023/10/08 01:19:56;;;;;;;0.10;0.10;;;;;;;17.25;43.02;101499.53;4960337;28;20289;-83
2023/10/08 01:22:22;;;;;;;0.20;0.20;;;;;;;17.00;43.40;101468.00;4962528;28;20026;-84
2023/10/08 01:24:51;;;;;;;0.10;0.10;;;;;;;17.12;43.53;101496.03;4975404;28;20389;-83
2023/10/08 01:27:24;;;;;;;0.10;0.10;;;;;;;17.07;43.59;101492.84;4975313;28;20113;-84
2023/10/08 01:29:52;;;;;;;0.20;0.20;;;;;;;17.05;43.44;101497.34;4959205;28;20492;-83
2023/10/08 01:32:19;;;;;;;0.10;0.10;;;;;;;16.97;43.67;101487.34;4959663;28;20030;-83
2023/10/08 01:34:47;;;;;;;0.20;0.20;;;;;;;17.02;43.66;101495.75;4959408;28;20030;-83
2023/10/08 01:37:17;;;;;;;0.10;0.10;;;;;;;17.10;43.88;101487.41;4975517;28;20030;-84
2023/10/08 01:39:46;;;;;;;0.10;0.10;;;;;;;17.07;43.43;101478.00;4959451;28;20037;-84
2023/10/08 01:42:18;;;;;;;0.10;0.10;;;;;;;17.15;43.56;101486.19;4974914;28;20026;-83
2023/10/08 01:44:47;;;;;;;0.10;0.10;;;;;;;17.12;43.61;101481.19;4960621;28;20033;-84
2023/10/08 01:47:14;;;;;;;0.17;0.17;;;;;;;17.16;43.52;101487.03;4943469;28;20071;-84
2023/10/08 01:49:39;;;;;;;0.10;0.10;;;;;;;16.97;43.53;101461.22;4958857;28;20030;-85
2023/10/08 01:52:13;;;;;;;0.10;0.10;;;;;;;17.09;43.37;101476.13;4958799;28;20053;-83
2023/10/08 01:54:38;;;;;;;0.20;0.20;;;;;;;17.15;43.57;101485.38;4975825;28;20081;-83
2023/10/08 01:57:04;;;;;;;0.10;0.10;;;;;;;17.12;43.68;101481.19;4958465;28;20408;-84
2023/10/08 01:59:31;;;;;;;0.10;0.10;;;;;;;17.02;43.59;101474.00;4992104;28;20457;-84
2023/10/08 02:01:57;;;;;;;0.10;0.10;;;;;;;17.11;43.40;101470.81;4958136;28;20088;-83
2023/10/08 02:04:22;;;;;;;0.10;0.10;;;;;;;17.01;44.15;101474.91;4991821;28;20497;-83
2023/10/08 02:06:48;;;;;;;0.10;0.10;;;;;;;17.00;43.92;101470.63;4974437;28;20034;-83
2023/10/08 02:09:14;;;;;;;0.10;0.10;;;;;;;16.83;44.19;101450.78;4992129;28;21321;-84
2023/10/08 02:11:53;;;;;;;0.10;0.10;;;;;;;16.88;44.35;101473.06;4990198;28;20496;-84
2023/10/08 02:14:18;;;;;;;0.10;0.10;;;;;;;16.77;44.63;101454.59;4943371;28;20022;-84
2023/10/08 02:16:44;;;;;;;0.10;0.10;;;;;;;16.60;44.56;101431.25;4974474;28;20526;-84
2023/10/08 02:19:12;;;;;;;0.10;0.10;;;;;;;16.79;44.60;101463.19;4974653;28;20034;-83
2023/10/08 02:21:41;;;;;;;0.10;0.10;;;;;;;16.69;45.19;101471.69;4992104;28;20034;-84
2023/10/08 02:24:08;;;;;;;0.10;0.10;;;;;;;16.68;45.05;101469.97;4958451;28;20066;-84
2023/10/08 02:26:34;;;;;;;0.10;0.10;;;;;;;16.65;45.33;101463.16;4974452;28;20038;-83
2023/10/08 02:29:01;;;;;;;0.10;0.10;;;;;;;16.65;45.06;101460.56;4958346;28;20121;-84
2023/10/08 02:31:27;;;;;;;0.10;0.10;;;;;;;16.64;45.52;101458.88;4974362;28;20105;-83
2023/10/08 02:33:53;;;;;;;0.10;0.10;;;;;;;16.58;45.25;101448.78;4958468;28;20077;-84
2023/10/08 02:36:19;;;;;;;0.10;0.10;;;;;;;16.62;45.24;101465.97;4941967;28;20125;-83
2023/10/08 02:38:45;;;;;;;0.10;0.10;;;;;;;16.73;45.29;101454.91;4958214;28;20081;-83
2023/10/08 02:41:16;;;;;;;0.10;0.10;;;;;;;16.63;45.66;101431.91;4973685;28;20026;-83
2023/10/08 02:43:42;;;;;;;0.10;0.10;;;;;;;16.53;46.30;101436.03;4941886;28;20401;-84
2023/10/08 02:46:10;;;;;;;0.20;0.20;;;;;;;16.42;46.21;101435.84;4973755;28;20033;-84
2023/10/08 02:48:36;;;;;;;0.10;0.10;;;;;;;16.55;46.23;101462.88;4990274;28;20101;-84
2023/10/08 02:51:07;;;;;;;0.20;0.20;;;;;;;16.56;46.33;101455.88;4958152;28;20508;-83
2023/10/08 02:53:33;;;;;;;0.10;0.10;;;;;;;16.55;46.27;101444.59;4991435;28;20061;-84
2023/10/08 02:55:59;;;;;;;0.10;0.10;;;;;;;16.60;46.09;101446.91;4957481;28;20065;-84
2023/10/08 02:58:27;;;;;;;0.10;0.10;;;;;;;16.56;46.12;101442.81;4957326;28;20037;-84
2023/10/08 03:00:53;;;;;;;0.10;0.10;;;;;;;16.49;46.17;101438.91;4974322;28;20034;-83
2023/10/08 03:03:18;;;;;;;0.10;0.10;;;;;;;16.62;45.94;101439.84;4974076;28;20045;-85
2023/10/08 03:05:51;;;;;;;0.10;0.10;;;;;;;16.55;46.03;101449.81;4957422;28;20045;-85
2023/10/08 03:08:20;;;;;;;0.10;0.10;;;;;;;16.47;46.07;101417.28;4957866;28;20100;-83
2023/10/08 03:10:50;;;;;;;0.10;0.10;;;;;;;16.62;46.03;101427.63;4990887;28;20166;-84
2023/10/08 03:13:16;;;;;;;0.10;0.10;;;;;;;16.62;45.61;101426.78;4942376;28;20030;-84
2023/10/08 03:18:16;;;;;;;0.20;0.20;;;;;;;16.67;45.60;101421.28;4974755;28;20051;-83
2023/10/08 03:23:33;;;;;;;0.10;0.10;;;;;;;16.85;45.00;101431.44;4973706;28;20053;-84
2023/10/08 03:26:09;;;;;;;0.10;0.10;;;;;;;16.82;45.23;101422.97;4976759;28;20496;-84
2023/10/08 03:28:35;;;;;;;0.10;0.10;;;;;;;16.86;45.10;101427.91;4974950;28;20026;-84
2023/10/08 03:31:04;;;;;;;0.10;0.10;;;;;;;16.89;45.13;101426.88;4941634;28;20029;-83
2023/10/08 03:33:37;;;;;;;0.10;0.10;;;;;;;16.80;45.08;101402.13;4974140;28;20113;-83
2023/10/08 03:36:10;;;;;;;0.10;0.10;;;;;;;16.84;44.94;101429.78;4989766;28;20033;-83
2023/10/08 03:38:50;;;;;;;0.10;0.10;;;;;;;16.90;45.03;101424.16;4959556;28;20031;-84
2023/10/08 03:41:18;;;;;;;0.10;0.10;;;;;;;16.86;44.95;101406.16;4990973;28;20030;-83
2023/10/08 03:43:52;;;;;;;0.10;0.10;;;;;;;16.91;44.78;101412.78;4941848;28;20126;-84
2023/10/08 03:46:21;;;;;;;0.10;0.10;;;;;;;16.89;45.15;101411.19;4974445;28;20451;-84
2023/10/08 03:48:50;;;;;;;0.10;0.10;;;;;;;16.89;44.98;101405.97;4973691;28;20507;-84
2023/10/08 03:51:19;;;;;;;0.10;0.10;;;;;;;16.96;44.87;101406.41;4960555;28;20086;-84
2023/10/08 03:54:29;;;;;;;0.20;0.20;;;;;;;16.92;45.22;101398.78;4975963;28;20208;-84
2023/10/08 03:56:36;;;;;;;0.10;0.10;;;;;;;16.71;45.26;101387.03;4974184;28;20070;-84
2023/10/08 03:59:20;;;;;;;0.15;0.15;;;;;;;16.64;45.67;101386.56;4961260;28;20046;-83
2023/10/08 04:01:49;;;;;;;0.20;0.20;;;;;;;16.63;45.51;101384.06;4979830;28;20476;-83
2023/10/08 04:04:15;;;;;;;0.10;0.10;;;;;;;16.62;45.38;101371.94;4994634;28;20034;-83
2023/10/08 04:06:48;;;;;;;0.10;0.10;;;;;;;16.73;45.19;101382.59;4976758;28;20097;-83
2023/10/08 04:09:31;;;;;;;0.10;0.10;;;;;;;16.87;44.92;101381.69;4961584;28;20692;-84
2023/10/08 04:12:04;;;;;;;0.20;0.20;;;;;;;16.96;44.75;101380.28;4978862;28;20405;-83
2023/10/08 04:14:31;;;;;;;0.10;0.10;;;;;;;17.06;44.79;101374.38;4977881;28;20034;-83
2023/10/08 04:16:58;;;;;;;0.10;0.10;;;;;;;17.06;44.45;101365.69;4992869;28;20027;-84
2023/10/08 04:19:26;;;;;;;0.10;0.10;;;;;;;17.07;44.51;101369.97;4976572;28;20117;-83
2023/10/08 04:21:55;;;;;;;0.10;0.10;;;;;;;17.12;44.54;101365.31;4960756;28;20076;-83
2023/10/08 04:24:28;;;;;;;0.20;0.20;;;;;;;17.02;44.60;101361.59;4976438;28;20034;-84
2023/10/08 04:27:02;;;;;;;0.10;0.10;;;;;;;17.07;44.51;101356.91;4976699;28;20030;-83
2023/10/08 04:29:31;;;;;;;0.10;0.10;;;;;;;17.20;44.77;101358.59;4961022;28;20030;-83
2023/10/08 04:32:01;;;;;;;0.10;0.10;;;;;;;17.19;44.46;101350.88;4976733;28;20023;-83
2023/10/08 04:34:28;;;;;;;0.10;0.10;;;;;;;17.29;44.36;101362.41;4976907;28;20030;-83
2023/10/08 04:36:54;;;;;;;0.10;0.10;;;;;;;17.25;44.29;101349.66;4960191;28;20031;-83
2023/10/08 04:39:32;;;;;;;0.10;0.10;;;;;;;17.39;43.78;101370.50;4975812;28;20027;-83
2023/10/08 04:42:09;;;;;;;0.10;0.10;;;;;;;17.39;44.00;101354.78;4992748;28;20105;-83
2023/10/08 04:44:38;;;;;;;0.10;0.10;;;;;;;17.42;43.34;101352.84;4977456;28;20408;-84
2023/10/08 04:47:31;;;;;;;0.10;0.10;;;;;;;17.57;43.29;101350.13;4976600;28;20031;-83
2023/10/08 04:49:53;;;;;;;0.20;0.20;;;;;;;17.73;42.80;101356.06;4992375;28;20027;-83
2023/10/08 04:52:19;;;;;;;0.10;0.10;;;;;;;17.86;42.41;101361.28;4975871;28;20050;-83
2023/10/08 04:55:05;;;;;;;0.10;0.10;;;;;;;17.98;41.85;101357.84;4960116;28;20057;-83
2023/10/08 04:57:30;;;;;;;0.10;0.10;;;;;;;18.03;41.98;101361.81;4965420;28;21138;-84
2023/10/08 04:59:57;;;;;;;0.10;0.10;;;;;;;18.15;41.34;101360.13;4975946;28;20026;-84
2023/10/08 05:02:48;;;;;;;0.10;0.10;;;;;;;18.16;40.85;101350.50;4976114;28;20113;-83
2023/10/08 05:10:32;;;;;;;0.10;0.10;;;;;;;18.55;40.08;101359.97;4976265;28;20045;-84
2023/10/08 05:15:41;;;;;;;0.10;0.10;;;;;;;18.72;39.42;101361.44;4976512;28;20038;-83
2023/10/08 05:21:16;;;;;;;0.10;0.10;;;;;;;18.75;38.85;101345.47;4968919;28;20496;-84
2023/10/08 05:24:07;;;;;;;0.20;0.20;;;;;;;19.01;38.46;101365.41;4992758;28;20038;-84
2023/10/08 05:26:41;;;;;;;0.10;0.10;;;;;;;19.06;37.84;101354.59;4978134;28;20039;-85
2023/10/08 05:29:49;;;;;;;0.10;0.10;;;;;;;19.11;37.92;101360.34;4992764;28;20030;-83
2023/10/08 05:32:37;;;;;;;0.10;0.10;;;;;;;19.25;38.12;101356.69;4980504;28;20034;-83
2023/10/08 05:37:52;;;;;;;0.10;0.10;;;;;;;19.27;37.74;101360.03;4977142;28;20101;-84
2023/10/08 05:40:54;;;;;;;0.10;0.10;;;;;;;19.23;37.50;101337.63;4975936;28;20085;-84
2023/10/08 05:43:22;;;;;;;0.10;0.10;;;;;;;19.30;36.93;101346.72;4978460;28;20057;-84
2023/10/08 05:46:18;;;;;;;0.10;0.10;;;;;;;19.41;36.67;101350.22;4976938;28;20129;-84
2023/10/08 05:48:44;;;;;;;0.10;0.10;;;;;;;19.53;36.33;101356.31;4977440;28;20042;-83
2023/10/08 05:51:23;;;;;;;0.10;0.10;;;;;;;19.68;35.80;101357.84;4961709;28;20085;-84
2023/10/08 05:53:51;;;;;;;0.20;0.20;;;;;;;19.69;34.98;101353.41;4976200;28;20081;-84
2023/10/08 05:56:28;;;;;;;0.20;0.20;;;;;;;19.79;35.01;101353.56;4959713;28;20033;-84
2023/10/08 05:59:14;;;;;;;0.10;0.10;;;;;;;19.93;34.97;101359.41;4991173;28;20027;-84
2023/10/08 06:01:41;;;;;;;0.10;0.10;;;;;;;20.01;34.52;101353.59;4977772;28;20133;-83
2023/10/08 06:04:42;;;;;;;0.10;0.10;;;;;;;20.13;34.24;101355.25;4974920;28;20041;-84
2023/10/08 06:07:17;;;;;;;0.10;0.10;;;;;;;20.19;34.32;101357.41;4978999;28;20582;-84
2023/10/08 06:09:50;;;;;;;0.10;0.10;;;;;;;20.32;34.44;101357.28;4990704;28;20515;-83
2023/10/08 06:12:19;;;;;;;0.10;0.10;;;;;;;20.33;34.07;101354.53;4960850;28;20034;-83
2023/10/08 06:17:56;;;;;;;0.10;0.10;;;;;;;20.49;34.05;101364.72;4963020;28;20028;-86
2023/10/08 06:20:25;;;;;;;0.20;0.20;;;;;;;20.52;34.41;101340.81;4949310;28;20488;-84
2023/10/08 06:22:54;;;;;;;0.10;0.10;;;;;;;20.51;34.57;101351.44;4974543;28;20034;-83
2023/10/08 06:25:23;;;;;;;0.20;0.20;;;;;;;20.66;34.34;101371.28;4974692;28;20076;-83
2023/10/08 06:27:55;;;;;;;0.10;0.10;;;;;;;20.62;34.33;101360.16;4958531;28;20085;-83
2023/10/08 06:30:21;;;;;;;0.20;0.20;;;;;;;20.79;33.75;101366.69;4974049;28;20026;-84
2023/10/08 06:32:48;;;;;;;0.10;0.10;;;;;;;20.66;33.83;101337.09;4958109;28;20038;-84
2023/10/08 06:35:17;;;;;;;0.10;0.10;;;;;;;20.91;33.54;101362.25;4991899;28;20484;-83
2023/10/08 06:37:49;;;;;;;0.10;0.10;;;;;;;20.98;33.09;101381.00;4974767;28;20105;-83
2023/10/08 06:43:24;;;;;;;0.10;0.10;;;;;;;20.98;32.67;101367.84;4942403;29;20048;-83
2023/10/08 06:45:52;;;;;;;0.10;0.10;;;;;;;20.97;32.22;101380.16;4955452;28;20530;-83
2023/10/08 06:48:20;;;;;;;0.10;0.10;;;;;;;21.05;31.99;101374.28;4974415;28;20085;-84
2023/10/08 06:50:46;;;;;;;0.10;0.10;;;;;;;21.05;31.51;101371.66;4958025;28;20077;-83
2023/10/08 06:53:13;;;;;;;0.10;0.10;;;;;;;21.31;31.03;101378.28;4958116;28;20030;-83
2023/10/08 06:55:40;;;;;;;0.10;0.10;;;;;;;21.35;31.23;101373.63;4958739;28;20034;-84
2023/10/08 06:58:06;;;;;;;0.10;0.10;;;;;;;21.40;30.94;101364.34;4991247;28;20038;-83
2023/10/08 07:00:38;;;;;;;0.10;0.10;;;;;;;21.36;30.49;101349.78;4942110;28;20062;-84
2023/10/08 07:03:04;;;;;;;0.10;0.10;;;;;;;21.48;30.62;101375.09;4959660;28;20085;-84
2023/10/08 07:05:29;;;;;;;0.10;0.10;;;;;;;21.45;30.30;101372.72;4957291;28;20034;-84
2023/10/08 07:07:55;;;;;;;0.10;0.10;;;;;;;21.51;30.56;101373.16;4957704;28;20543;-84
2023/10/08 07:10:23;;;;;;;0.20;0.20;;;;;;;21.51;30.38;101375.78;4957773;28;20026;-83
2023/10/08 07:12:52;;;;;;;0.10;0.10;;;;;;;21.47;30.31;101378.69;4957933;28;20029;-83
2023/10/08 07:15:23;;;;;;;0.10;0.10;;;;;;;21.46;30.20;101371.75;4974355;28;20022;-84
2023/10/08 07:17:51;;;;;;;0.10;0.10;;;;;;;21.48;30.17;101369.81;4974710;28;20448;-84
2023/10/08 07:20:22;;;;;;;0.10;0.10;;;;;;;21.42;30.50;101362.44;4958017;28;20057;-83
2023/10/08 07:22:54;;;;;;;0.13;0.13;;;;;;;21.13;30.44;101327.13;4974417;28;20474;-84
2023/10/08 07:25:22;;;;;;;0.10;0.10;;;;;;;21.41;30.25;101357.28;4975279;28;20054;-85
2023/10/08 07:27:48;;;;;;;0.20;0.20;;;;;;;21.47;30.29;101362.91;4959642;28;20583;-85
2023/10/08 07:30:26;;;;;;;0.20;0.20;;;;;;;21.63;30.22;101356.34;4945540;28;20040;-86
2023/10/08 07:32:54;;;;;;;0.10;0.10;;;;;;;21.69;30.09;101356.66;4964736;28;20037;-84
2023/10/08 07:37:46;;;;;;;0.20;0.20;;;;;;;21.97;29.88;101349.91;4961358;28;20046;-85
2023/10/08 07:40:15;;;;;;;0.20;0.20;;;;;;;22.11;29.85;101351.38;4977411;28;20030;-85
2023/10/08 07:42:41;;;;;;;0.10;0.10;;;;;;;22.24;30.00;101361.72;4977185;28;20486;-85
2023/10/08 07:45:06;;;;;;;0.10;0.10;;;;;;;22.38;29.68;101363.13;4976971;28;20037;-85
2023/10/08 07:47:32;;;;;;;0.10;0.10;;;;;;;22.32;29.56;101364.50;4977559;28;20031;-85
2023/10/08 07:50:01;;;;;;;0.10;0.10;;;;;;;22.22;29.78;101339.91;4961061;28;20507;-85
2023/10/08 07:52:26;;;;;;;0.20;0.20;;;;;;;22.61;29.80;101349.63;4973826;28;20049;-86
2023/10/08 07:54:53;;;;;;;0.20;0.20;;;;;;;22.78;29.80;101323.53;4976969;28;20030;-86
2023/10/08 07:57:26;;;;;;;0.10;0.10;;;;;;;23.01;29.17;101327.63;4976747;28;20138;-85
2023/10/08 07:59:54;;;;;;;0.20;0.20;;;;;;;23.23;29.15;101328.31;4993031;28;20097;-85
2023/10/08 08:02:23;;;;;;;0.15;0.15;;;;;;;23.29;28.34;101307.44;4977067;28;20037;-85
2023/10/08 08:04:50;;;;;;;0.10;0.10;;;;;;;23.32;28.20;101320.38;4977348;28;20101;-85
2023/10/08 08:07:16;;;;;;;0.20;0.20;;;;;;;23.42;28.50;101312.44;4976489;28;20030;-85
2023/10/08 08:09:52;;;;;;;0.10;0.10;;;;;;;23.45;28.11;101301.59;4976580;28;20037;-85
2023/10/08 08:12:25;;;;;;;0.10;0.10;;;;;;;23.51;28.44;101310.75;4961379;28;20030;-85
2023/10/08 08:14:53;;;;;;;0.10;0.10;;;;;;;23.32;27.94;101306.34;4977368;28;20088;-86
2023/10/08 08:17:18;;;;;;;0.10;0.10;;;;;;;23.38;27.81;101274.09;4992693;28;20089;-85
2023/10/08 08:19:47;;;;;;;0.13;0.13;;;;;;;23.73;27.82;101287.50;4976715;28;20121;-86
2023/10/08 08:22:15;;;;;;;0.20;0.20;;;;;;;23.71;28.08;101286.00;4976413;28;20041;-85
2023/10/08 08:24:44;;;;;;;0.10;0.10;;;;;;;23.78;28.15;101262.47;4976708;28;20422;-85
2023/10/08 08:27:31;;;;;;;0.20;0.20;;;;;;;23.79;28.01;101264.13;4977049;28;20037;-85
2023/10/08 08:30:01;;;;;;;0.20;0.20;;;;;;;23.88;28.09;101245.59;4976245;28;20125;-85
2023/10/08 08:32:28;;;;;;;0.20;0.20;;;;;;;23.97;27.91;101244.69;4976903;28;20033;-85
2023/10/08 08:34:54;;;;;;;0.20;0.20;;;;;;;23.98;28.08;101229.69;4994050;28;20034;-85
2023/10/08 08:37:22;;;;;;;0.20;0.20;;;;;;;24.11;27.89;101230.19;4976479;28;20476;-85
2023/10/08 08:39:48;;;;;;;0.10;0.10;;;;;;;24.14;27.97;101219.31;4976310;28;20042;-82
2023/10/08 08:42:14;;;;;;;0.10;0.10;;;;;;;24.35;27.73;101231.44;4976162;28;20181;-82
2023/10/08 08:44:45;;;;;;;0.10;0.10;;;;;;;24.45;27.50;101233.03;4976340;28;20105;-83
2023/10/08 08:47:14;;;;;;;0.10;0.10;;;;;;;24.62;27.42;101241.97;4975932;28;20030;-83
2023/10/08 08:49:39;;;;;;;0.10;0.10;;;;;;;24.71;26.92;101237.59;4976060;28;20023;-83
2023/10/08 08:52:05;;;;;;;0.20;0.20;;;;;;;24.62;27.55;101231.38;4975765;28;20062;-83
2023/10/08 08:54:30;;;;;;;0.10;0.10;;;;;;;24.60;27.56;101239.47;4976154;28;20563;-82
2023/10/08 08:56:57;;;;;;;0.20;0.20;;;;;;;24.53;27.56;101245.50;4959744;28;20042;-83
2023/10/08 08:59:23;;;;;;;0.20;0.20;;;;;;;24.65;27.76;101241.66;4976446;28;20022;-82
2023/10/08 09:01:50;;;;;;;0.20;0.20;;;;;;;24.82;27.75;101245.28;4959805;28;20034;-82
2023/10/08 09:04:17;;;;;;;0.20;0.20;;;;;;;24.88;27.91;101218.22;4976163;28;20026;-83
2023/10/08 09:06:44;;;;;;;0.20;0.20;;;;;;;24.97;27.93;101237.63;4960011;28;20030;-83
2023/10/08 09:09:21;;;;;;;0.20;0.20;;;;;;;24.94;28.17;101227.34;4944238;28;20031;-83
2023/10/08 09:11:51;;;;;;;0.20;0.20;;;;;;;24.81;28.12;101217.16;4977315;28;20125;-83
2023/10/08 09:14:26;;;;;;;0.10;0.10;;;;;;;24.93;27.80;101223.03;4975890;28;20034;-82
2023/10/08 09:16:54;;;;;;;0.20;0.20;;;;;;;25.06;28.26;101200.50;4959235;28;20031;-82
2023/10/08 09:19:21;;;;;;;0.20;0.20;;;;;;;25.31;28.03;101220.03;4975905;28;20039;-84
2023/10/08 09:22:04;;;;;;;0.20;0.20;;;;;;;25.31;27.71;101230.63;4975693;28;20041;-83
2023/10/08 09:24:40;;;;;;;0.13;0.13;;;;;;;25.43;28.19;101213.47;4960137;28;20022;-83
2023/10/08 09:27:14;;;;;;;0.20;0.20;;;;;;;25.65;27.76;101216.56;4959518;28;20559;-83
2023/10/08 09:29:40;;;;;;;0.20;0.20;;;;;;;25.78;27.52;101222.28;4960242;28;20101;-83
2023/10/08 09:32:06;;;;;;;0.20;0.20;;;;;;;25.82;27.12;101223.63;4959136;28;20034;-83
2023/10/08 09:34:32;;;;;;;0.20;0.20;;;;;;;25.85;27.32;101223.28;4959104;28;20018;-82
2023/10/08 09:37:01;;;;;;;0.20;0.20;;;;;;;25.90;27.12;101231.59;4959400;28;20081;-83
2023/10/08 09:39:28;;;;;;;0.10;0.10;;;;;;;25.84;26.85;101220.81;4943873;28;20093;-83
2023/10/08 09:41:55;;;;;;;0.20;0.20;;;;;;;25.90;27.30;101231.59;4959278;28;20109;-83
2023/10/08 09:44:20;;;;;;;0.20;0.20;;;;;;;25.81;27.37;101216.66;4958819;28;20485;-83
2023/10/08 09:46:50;;;;;;;0.20;0.20;;;;;;;25.89;27.20;101213.22;4975189;28;20038;-83
2023/10/08 09:49:16;;;;;;;0.20;0.20;;;;;;;25.83;26.89;101209.38;4959430;28;20022;-83
2023/10/08 09:51:41;;;;;;;0.20;0.20;;;;;;;25.84;27.13;101218.97;4964255;28;20042;-83
2023/10/08 09:54:10;;;;;;;0.20;0.20;;;;;;;25.94;27.01;101217.03;4974876;28;20109;-83
2023/10/08 09:56:36;;;;;;;0.20;0.20;;;;;;;25.98;27.25;101217.56;4974626;28;20112;-83
2023/10/08 09:59:01;;;;;;;0.20;0.20;;;;;;;26.01;26.98;101217.22;4958366;28;20460;-82
2023/10/08 10:01:27;;;;;;;0.20;0.20;;;;;;;26.01;26.94;101204.81;4974868;28;20033;-83
2023/10/08 10:03:52;;;;;;;0.20;0.20;;;;;;;26.03;27.46;101202.81;4974853;28;20492;-83
2023/10/08 10:06:18;;;;;;;0.20;0.20;;;;;;;26.10;26.76;101199.53;4974838;28;20026;-83
2023/10/08 10:08:45;;;;;;;0.17;0.17;;;;;;;26.14;26.83;101211.44;4974391;28;20037;-83
2023/10/08 10:11:10;;;;;;;0.20;0.20;;;;;;;26.19;27.21;101187.94;4974663;28;20568;-82
2023/10/08 10:13:52;;;;;;;0.20;0.20;;;;;;;26.41;26.73;101184.69;4991319;28;20105;-83
2023/10/08 10:16:19;;;;;;;0.20;0.20;;;;;;;26.52;26.53;101197.63;4973758;28;20026;-83
2023/10/08 10:18:46;;;;;;;0.20;0.20;;;;;;;26.65;26.70;101183.06;4974958;28;20105;-83
2023/10/08 10:21:15;;;;;;;0.20;0.20;;;;;;;26.66;26.84;101182.06;4990549;28;20105;-83
2023/10/08 10:23:44;;;;;;;0.20;0.20;;;;;;;26.80;26.51;101176.06;4991723;28;20023;-82
2023/10/08 10:26:30;;;;;;;0.20;0.20;;;;;;;26.91;26.48;101181.03;4974089;28;20511;-84
2023/10/08 10:29:10;;;;;;;0.20;0.20;;;;;;;26.84;26.16;101166.75;4973947;28;20042;-82
2023/10/08 10:31:40;;;;;;;0.20;0.20;;;;;;;27.19;25.94;101175.34;4991325;28;20026;-82
2023/10/08 10:34:08;;;;;;;0.20;0.20;;;;;;;27.31;25.27;101163.38;4974308;28;20066;-83
2023/10/08 10:36:35;;;;;;;0.20;0.20;;;;;;;27.35;25.46;101164.69;4974484;28;20492;-83
2023/10/08 10:39:02;;;;;;;0.20;0.20;;;;;;;27.33;25.16;101146.25;4974492;28;20484;-83
2023/10/08 10:41:27;;;;;;;0.20;0.20;;;;;;;27.39;25.05;101118.19;4974166;28;20455;-83
2023/10/08 10:43:53;;;;;;;0.10;0.10;;;;;;;27.59;24.62;101147.81;4973901;28;20038;-83
2023/10/08 10:46:30;;;;;;;0.20;0.20;;;;;;;27.72;24.74;101154.25;4974160;28;20056;-82
2023/10/08 10:49:31;;;;;;;0.20;0.20;;;;;;;27.71;24.47;101138.47;4975850;28;20034;-83
2023/10/08 10:51:57;;;;;;;0.20;0.20;;;;;;;27.75;24.42;101133.66;4976141;28;20090;-83
2023/10/08 10:54:25;;;;;;;0.20;0.20;;;;;;;27.89;24.61;101124.91;4960188;28;20030;-83
2023/10/08 10:57:04;;;;;;;0.20;0.20;;;;;;;27.96;24.66;101131.19;4958091;28;20105;-83
2023/10/08 10:59:36;;;;;;;0.20;0.20;;;;;;;27.98;24.29;101113.22;4961202;28;20058;-83
2023/10/08 11:02:20;;;;;;;0.20;0.20;;;;;;;27.97;24.54;101108.91;4958675;28;20057;-82
2023/10/08 11:04:49;;;;;;;0.20;0.20;;;;;;;27.68;24.82;101102.44;4962482;28;20393;-83
2023/10/08 11:07:19;;;;;;;0.20;0.20;;;;;;;27.66;24.97;101099.16;4958665;28;20093;-83
2023/10/08 11:09:46;;;;;;;0.20;0.20;;;;;;;27.74;24.62;101106.25;4973893;28;20121;-83
2023/10/08 11:12:14;;;;;;;0.20;0.20;;;;;;;27.57;24.92;101094.84;4973571;28;20029;-83
2023/10/08 11:14:42;;;;;;;0.20;0.20;;;;;;;27.49;25.16;101099.38;4974010;28;20042;-83
2023/10/08 11:17:12;;;;;;;0.20;0.20;;;;;;;27.46;25.39;101097.06;4989925;28;20038;-83
2023/10/08 11:19:38;;;;;;;0.20;0.20;;;;;;;27.65;25.44;101096.63;4989975;28;20022;-83
2023/10/08 11:22:05;;;;;;;0.20;0.20;;;;;;;27.74;25.16;101090.31;4973729;28;20026;-83
2023/10/08 11:24:37;;;;;;;0.20;0.20;;;;;;;27.60;24.98;101083.84;4974211;28;20058;-83
2023/10/08 11:27:15;;;;;;;0.20;0.20;;;;;;;27.64;25.30;101063.91;4958354;28;20417;-83
2023/10/08 11:29:56;;;;;;;0.20;0.20;;;;;;;27.92;24.84;101076.69;4944862;28;20416;-83
2023/10/08 11:32:25;;;;;;;0.20;0.20;;;;;;;27.73;24.65;101048.78;4974660;28;20038;-83
2023/10/08 11:35:00;;;;;;;0.20;0.20;;;;;;;27.85;24.70;101062.47;4973802;28;20031;-83
2023/10/08 11:37:30;;;;;;;0.20;0.20;;;;;;;27.93;24.45;101076.53;4958608;28;20030;-83
2023/10/08 11:39:58;;;;;;;0.20;0.20;;;;;;;27.71;24.56;101062.22;4957304;28;20022;-84
2023/10/08 11:45:17;;;;;;;0.20;0.20;;;;;;;27.52;25.07;101067.94;4960343;28;20198;-84
2023/10/08 11:47:55;;;;;;;0.20;0.20;;;;;;;27.44;25.04;101071.50;4975535;28;20031;-84
2023/10/08 11:50:30;;;;;;;0.20;0.20;;;;;;;27.37;25.11;101048.47;4959308;28;20033;-83
2023/10/08 11:53:01;;;;;;;0.20;0.20;;;;;;;27.30;24.89;101020.94;4959453;28;20522;-82
2023/10/08 11:55:27;;;;;;;0.20;0.20;;;;;;;27.18;25.20;101046.22;4973613;28;20117;-83
2023/10/08 11:57:52;;;;;;;0.20;0.20;;;;;;;27.18;25.16;101041.75;4957165;28;20109;-83
2023/10/08 12:00:20;;;;;;;0.20;0.20;;;;;;;27.09;25.25;101053.41;4957392;28;20042;-83
2023/10/08 12:02:46;;;;;;;0.20;0.20;;;;;;;27.20;25.43;101041.56;4957862;28;20452;-83
2023/10/08 12:05:18;;;;;;;0.20;0.20;;;;;;;27.21;25.28;101049.34;4973305;28;20053;-83
2023/10/08 12:07:47;;;;;;;0.20;0.20;;;;;;;27.43;25.11;101045.09;4974260;28;20049;-83
2023/10/08 12:10:14;;;;;;;0.20;0.20;;;;;;;27.47;25.17;101035.78;4956887;28;20034;-82
2023/10/08 12:12:40;;;;;;;0.20;0.20;;;;;;;27.66;24.63;101038.00;4957502;28;20424;-83
2023/10/08 12:15:09;;;;;;;0.20;0.20;;;;;;;27.76;24.33;101037.78;4959896;28;20117;-83